createdAt,value
2022-12-04T00:02:20.997Z,97897.53
2022-12-04T00:04:48.145Z,97905.28
2022-12-04T00:07:16.735Z,97902.88
2022-12-04T00:09:43.371Z,97903.75
2022-12-04T00:12:10.387Z,97909.09
2022-12-04T00:15:23.526Z,97903.84
2022-12-04T00:17:34.335Z,97908.38
2022-12-04T00:20:02.385Z,97909.25
2022-12-04T00:22:34.167Z,97902.16
2022-12-04T00:25:05.832Z,97904.84
2022-12-04T00:27:34.786Z,97903.25
2022-12-04T00:30:02.042Z,97905.75
2022-12-04T00:32:33.410Z,97904.53
2022-12-04T00:35:04.919Z,97897.69
2022-12-04T00:37:35.243Z,97902.97
2022-12-04T00:40:02.910Z,97887.97
2022-12-04T00:42:30.079Z,97886.97
2022-12-04T00:44:58.125Z,97892.91
2022-12-04T00:47:25.786Z,97892.69
2022-12-04T00:49:53.385Z,97897.81
2022-12-04T00:52:20.412Z,97879.94
2022-12-04T00:54:47.054Z,97886.88
2022-12-04T00:57:19.083Z,97891.16
2022-12-04T00:59:45.395Z,97875.91
2022-12-04T01:02:13.006Z,97879.97
2022-12-04T01:04:40.268Z,97890.16
2022-12-04T01:07:07.347Z,97875.94
2022-12-04T01:09:34.190Z,97874.75
2022-12-04T01:12:07.137Z,97873.53
2022-12-04T01:14:34.776Z,97870.72
2022-12-04T01:17:02.589Z,97871.13
2022-12-04T01:19:29.791Z,97867.28
2022-12-04T01:22:02.133Z,97869.72
2022-12-04T01:24:30.353Z,97870.13
2022-12-04T01:26:58.012Z,97880.50
2022-12-04T01:29:29.050Z,97884.59
2022-12-04T01:31:58.617Z,97878.91
2022-12-04T01:34:26.171Z,97879.50
2022-12-04T01:36:53.746Z,97883.59
2022-12-04T01:39:20.996Z,97879.75
2022-12-04T01:41:49.159Z,97872.41
2022-12-04T01:44:17.265Z,97871.22
2022-12-04T01:46:45.147Z,97857.59
2022-12-04T01:49:14.999Z,97861.66
2022-12-04T01:51:42.942Z,97857.81
2022-12-04T01:54:10.955Z,97863.50
2022-12-04T01:56:39.530Z,97867.56
2022-12-04T01:59:10.133Z,97865.53
2022-12-04T02:01:36.582Z,97872.22
2022-12-04T02:04:03.001Z,97870.81
2022-12-04T02:06:29.269Z,97870.41
2022-12-04T02:08:55.553Z,97876.91
2022-12-04T02:11:22.015Z,97871.22
2022-12-04T02:13:48.419Z,97871.84
2022-12-04T02:16:15.491Z,97869.59
2022-12-04T02:18:41.848Z,97868.38
2022-12-04T02:21:08.316Z,97873.25
2022-12-04T02:23:34.618Z,97873.66
2022-12-04T02:26:01.800Z,97869.53
2022-12-04T02:28:28.132Z,97877.06
2022-12-04T02:30:54.514Z,97870.34
2022-12-04T02:33:21.425Z,97861.84
2022-12-04T02:35:47.702Z,97857.75
2022-12-04T02:38:14.924Z,97853.88
2022-12-04T02:40:41.188Z,97847.19
2022-12-04T02:43:07.504Z,97844.16
2022-12-04T02:45:33.883Z,97854.91
2022-12-04T02:48:00.504Z,97843.13
2022-12-04T02:50:27.460Z,97847.78
2022-12-04T02:52:54.312Z,97848.19
2022-12-04T02:55:21.494Z,97839.88
2022-12-04T02:57:47.856Z,97842.72
2022-12-04T03:00:17.759Z,97848.34
2022-12-04T03:02:45.235Z,97849.59
2022-12-04T03:05:12.466Z,97846.31
2022-12-04T03:07:39.359Z,97839.81
2022-12-04T03:10:06.483Z,97842.66
2022-12-04T03:12:32.722Z,97837.78
2022-12-04T03:14:59.050Z,97837.38
2022-12-04T03:17:25.593Z,97833.28
2022-12-04T03:19:52.061Z,97840.63
2022-12-04T03:22:18.603Z,97853.19
2022-12-04T03:24:44.896Z,97851.53
2022-12-04T03:27:11.192Z,97851.94
2022-12-04T03:29:37.637Z,97853.94
2022-12-04T03:32:03.919Z,97846.44
2022-12-04T03:34:30.288Z,97848.25
2022-12-04T03:36:56.567Z,97847.63
2022-12-04T03:39:22.936Z,97854.13
2022-12-04T03:41:50.021Z,97860.41
2022-12-04T03:44:16.573Z,97857.97
2022-12-04T03:46:42.858Z,97860.19
2022-12-04T03:49:09.207Z,97851.66
2022-12-04T03:51:35.537Z,97830.53
2022-12-04T03:54:01.817Z,97860.34
2022-12-04T03:56:28.170Z,97856.28
2022-12-04T03:58:55.555Z,97846.75
2022-12-04T04:01:21.989Z,97842.69
2022-12-04T04:03:48.281Z,97847.31
2022-12-04T04:06:15.390Z,97846.75
2022-12-04T04:08:42.343Z,97845.28
2022-12-04T04:11:09.559Z,97854.41
2022-12-04T04:13:35.744Z,97848.53
2022-12-04T04:16:02.125Z,97847.91
2022-12-04T04:18:28.462Z,97842.84
2022-12-04T04:20:54.817Z,97845.66
2022-12-04T04:23:21.646Z,97842.59
2022-12-04T04:25:48.033Z,97853.16
2022-12-04T04:28:14.355Z,97855.94
2022-12-04T04:30:40.682Z,97853.50
2022-12-04T04:33:06.977Z,97864.25
2022-12-04T04:38:19.212Z,97863.00
2022-12-04T04:40:46.091Z,97862.19
2022-12-04T04:43:12.357Z,97850.03
2022-12-04T04:45:39.077Z,97855.47
2022-12-04T04:48:05.416Z,97859.13
2022-12-04T04:50:31.786Z,97865.41
2022-12-04T04:52:59.080Z,97858.50
2022-12-04T04:55:25.638Z,97861.34
2022-12-04T04:57:52.612Z,97862.34
2022-12-04T05:00:19.460Z,97858.91
2022-12-04T05:02:45.890Z,97867.78
2022-12-04T05:05:12.465Z,97862.53
2022-12-04T05:07:38.822Z,97869.81
2022-12-04T05:10:05.635Z,97861.31
2022-12-04T05:12:31.950Z,97835.28
2022-12-04T05:14:58.655Z,97864.94
2022-12-04T05:17:24.961Z,97871.22
2022-12-04T05:19:51.641Z,97870.59
2022-12-04T05:22:17.934Z,97863.69
2022-12-04T05:24:45.011Z,97860.44
2022-12-04T05:27:11.358Z,97857.19
2022-12-04T05:29:37.644Z,97866.06
2022-12-04T05:32:04.183Z,97854.75
2022-12-04T05:34:30.590Z,97852.28
2022-12-04T05:36:57.560Z,97845.41
2022-12-04T05:39:23.938Z,97853.50
2022-12-04T05:41:50.207Z,97844.97
2022-12-04T05:44:16.504Z,97859.94
2022-12-04T05:46:42.865Z,97852.22
2022-12-04T05:49:09.193Z,97849.78
2022-12-04T05:51:35.642Z,97860.31
2022-12-04T05:54:02.181Z,97861.34
2022-12-04T05:56:28.658Z,97865.97
2022-12-04T05:58:54.962Z,97855.44
2022-12-04T06:01:21.535Z,97858.06
2022-12-04T06:03:47.918Z,97857.44
2022-12-04T06:06:21.132Z,97866.31
2022-12-04T06:08:49.030Z,97866.31
2022-12-04T06:11:15.291Z,97862.09
2022-12-04T06:13:41.577Z,97856.19
2022-12-04T06:16:07.952Z,97861.47
2022-12-04T06:18:34.399Z,97870.38
2022-12-04T06:21:00.702Z,97861.84
2022-12-04T06:23:27.242Z,97863.66
2022-12-04T06:25:53.548Z,97857.75
2022-12-04T06:28:19.821Z,97861.22
2022-12-04T06:30:46.146Z,97864.88
2022-12-04T06:33:16.604Z,97866.66
2022-12-04T06:35:43.031Z,97870.50
2022-12-04T06:38:09.310Z,97875.94
2022-12-04T06:40:35.594Z,97865.41
2022-12-04T06:43:02.110Z,97869.25
2022-12-04T06:45:28.516Z,97872.69
2022-12-04T06:47:55.052Z,97869.25
2022-12-04T06:50:21.353Z,97872.88
2022-12-04T06:52:48.190Z,97868.63
2022-12-04T06:55:17.496Z,97873.06
2022-12-04T06:57:43.784Z,97871.47
2022-12-04T07:00:15.626Z,97876.72
2022-12-04T07:02:41.978Z,97868.81
2022-12-04T07:05:08.326Z,97873.25
2022-12-04T07:07:35.033Z,97881.16
2022-12-04T07:10:01.406Z,97881.16
2022-12-04T07:12:27.842Z,97877.69
2022-12-04T07:14:54.210Z,97884.97
2022-12-04T07:17:20.486Z,97883.34
2022-12-04T07:19:46.813Z,97885.97
2022-12-04T07:22:13.131Z,97884.38
2022-12-04T07:24:39.457Z,97882.72
2022-12-04T07:27:05.720Z,97883.75
2022-12-04T07:29:31.982Z,97883.94
2022-12-04T07:31:58.911Z,97882.09
2022-12-04T07:34:25.201Z,97879.66
2022-12-04T07:36:51.747Z,97863.88
2022-12-04T07:39:18.045Z,97870.94
2022-12-04T07:41:45.436Z,97864.25
2022-12-04T07:44:11.745Z,97865.28
2022-12-04T07:46:39.277Z,97862.81
2022-12-04T07:49:05.527Z,97874.16
2022-12-04T07:51:31.838Z,97879.41
2022-12-04T07:54:03.281Z,97881.22
2022-12-04T07:56:30.333Z,97883.06
2022-12-04T07:58:56.588Z,97886.66
2022-12-04T08:01:23.276Z,97885.06
2022-12-04T08:03:50.135Z,97893.94
2022-12-04T08:06:17.250Z,97890.69
2022-12-04T08:08:44.667Z,97886.22
2022-12-04T08:11:10.975Z,97893.19
2022-12-04T08:13:37.379Z,97898.97
2022-12-04T08:16:04.601Z,97894.22
2022-12-04T08:18:30.964Z,97888.75
2022-12-04T08:20:57.293Z,97877.53
2022-12-04T08:23:23.574Z,97887.16
2022-12-04T08:25:50.194Z,97880.88
2022-12-04T08:28:16.463Z,97874.06
2022-12-04T08:30:43.020Z,97877.31
2022-12-04T08:33:09.350Z,97878.94
2022-12-04T08:35:35.968Z,97874.66
2022-12-04T08:38:02.216Z,97867.13
2022-12-04T08:40:29.077Z,97872.97
2022-12-04T08:42:55.375Z,97860.34
2022-12-04T08:45:21.810Z,97859.03
2022-12-04T08:47:52.269Z,97866.50
2022-12-04T08:50:19.052Z,97866.78
2022-12-04T08:52:45.370Z,97869.91
2022-12-04T08:55:12.144Z,97865.13
2022-12-04T08:57:39.084Z,97859.09
2022-12-04T09:00:08.179Z,97860.16
2022-12-04T09:02:34.485Z,97861.44
2022-12-04T09:05:01.030Z,97861.16
2022-12-04T09:07:27.361Z,97858.34
2022-12-04T09:09:53.685Z,97860.06
2022-12-04T09:12:20.705Z,97854.81
2022-12-04T09:14:47.025Z,97858.34
2022-12-04T09:17:13.280Z,97853.91
2022-12-04T09:22:51.432Z,97856.03
2022-12-04T09:25:17.612Z,97857.09
2022-12-04T09:27:46.918Z,97862.72
2022-12-04T09:30:13.326Z,97856.06
2022-12-04T09:32:40.146Z,97862.44
2022-12-04T09:35:07.104Z,97862.44
2022-12-04T09:37:33.889Z,97861.31
2022-12-04T09:40:00.601Z,97855.44
2022-12-04T09:42:26.866Z,97853.22
2022-12-04T09:44:53.172Z,97862.25
2022-12-04T09:47:19.415Z,97851.31
2022-12-04T09:49:45.799Z,97854.97
2022-12-04T09:52:16.237Z,97853.81
2022-12-04T09:54:46.679Z,97856.63
2022-12-04T09:57:13.622Z,97849.91
2022-12-04T09:59:39.891Z,97855.44
2022-12-04T10:02:06.643Z,97843.06
2022-12-04T10:04:34.831Z,97842.94
2022-12-04T10:07:01.179Z,97846.06
2022-12-04T10:09:27.580Z,97843.03
2022-12-04T10:11:54.156Z,97837.81
2022-12-04T10:14:20.427Z,97835.00
2022-12-04T10:16:47.094Z,97833.00
2022-12-04T10:19:14.513Z,97827.78
2022-12-04T10:21:40.955Z,97830.06
2022-12-04T10:24:07.504Z,97823.00
2022-12-04T10:26:33.798Z,97831.84
2022-12-04T10:29:00.052Z,97830.69
2022-12-04T10:31:26.389Z,97827.09
2022-12-04T10:33:53.600Z,97827.44
2022-12-04T10:36:19.850Z,97829.03
2022-12-04T10:38:46.213Z,97829.53
2022-12-04T10:41:15.078Z,97828.38
2022-12-04T10:43:41.758Z,97824.09
2022-12-04T10:46:08.131Z,97828.13
2022-12-04T10:48:34.482Z,97834.84
2022-12-04T10:51:01.258Z,97836.28
2022-12-04T10:53:28.144Z,97832.44
2022-12-04T10:55:54.394Z,97840.06
2022-12-04T10:58:21.219Z,97827.59
2022-12-04T11:00:47.509Z,97833.25
2022-12-04T11:03:13.781Z,97839.47
2022-12-04T11:05:40.135Z,97829.97
2022-12-04T11:08:07.099Z,97830.84
2022-12-04T11:10:34.186Z,97832.53
2022-12-04T11:13:01.214Z,97842.50
2022-12-04T11:15:28.160Z,97842.81
2022-12-04T11:17:54.445Z,97842.31
2022-12-04T11:20:26.705Z,97838.91
2022-12-04T11:22:53.002Z,97833.09
2022-12-04T11:25:19.251Z,97825.41
2022-12-04T11:27:45.541Z,97827.09
2022-12-04T11:30:11.817Z,97835.16
2022-12-04T11:32:38.889Z,97832.06
2022-12-04T11:35:05.306Z,97832.59
2022-12-04T11:37:32.244Z,97840.66
2022-12-04T11:39:58.732Z,97827.97
2022-12-04T11:42:25.203Z,97838.72
2022-12-04T11:44:51.520Z,97837.16
2022-12-04T11:47:18.018Z,97822.03
2022-12-04T11:49:44.318Z,97825.56
2022-12-04T11:52:10.569Z,97819.47
2022-12-04T11:54:36.853Z,97819.47
2022-12-04T11:57:03.571Z,97812.84
2022-12-04T11:59:29.980Z,97812.59
2022-12-04T12:01:58.514Z,97808.13
2022-12-04T12:04:25.219Z,97809.72
2022-12-04T12:06:51.572Z,97807.88
2022-12-04T12:09:18.084Z,97808.13
2022-12-04T12:11:45.232Z,97802.75
2022-12-04T12:14:14.694Z,97803.72
2022-12-04T12:16:41.672Z,97804.22
2022-12-04T12:19:08.121Z,97797.25
2022-12-04T12:21:34.522Z,97798.38
2022-12-04T12:24:00.800Z,97792.53
2022-12-04T12:26:27.620Z,97791.81
2022-12-04T12:28:53.971Z,97796.13
2022-12-04T12:31:20.293Z,97802.34
2022-12-04T12:33:46.607Z,97796.00
2022-12-04T12:36:13.645Z,97790.16
2022-12-04T12:38:39.908Z,97791.53
2022-12-04T12:41:06.205Z,97788.38
2022-12-04T12:43:32.959Z,97779.84
2022-12-04T12:45:59.274Z,97788.16
2022-12-04T12:48:26.027Z,97778.34
2022-12-04T12:51:08.875Z,97782.38
2022-12-04T12:53:38.611Z,97773.88
2022-12-04T12:56:05.707Z,97779.53
2022-12-04T12:58:32.387Z,97776.59
2022-12-04T13:00:58.712Z,97783.53
2022-12-04T13:03:25.971Z,97770.75
2022-12-04T13:05:52.300Z,97767.03
2022-12-04T13:08:18.759Z,97767.31
2022-12-04T13:10:45.556Z,97759.06
2022-12-04T13:13:12.161Z,97760.41
2022-12-04T13:15:38.467Z,97755.59
2022-12-04T13:18:04.715Z,97755.91
2022-12-04T13:20:31.069Z,97752.72
2022-12-04T13:22:57.258Z,97739.13
2022-12-04T13:25:23.586Z,97735.94
2022-12-04T13:27:49.992Z,97739.16
2022-12-04T13:30:17.179Z,97736.78
2022-12-04T13:32:43.451Z,97733.59
2022-12-04T13:35:09.737Z,97733.34
2022-12-04T13:37:37.017Z,97732.03
2022-12-04T13:40:03.362Z,97733.63
2022-12-04T13:42:29.698Z,97735.00
2022-12-04T13:44:56.610Z,97724.81
2022-12-04T13:47:23.141Z,97728.06
2022-12-04T13:49:49.419Z,97725.66
2022-12-04T13:52:15.802Z,97720.31
2022-12-04T13:54:43.068Z,97720.31
2022-12-04T13:57:10.167Z,97709.88
2022-12-04T13:59:36.517Z,97723.81
2022-12-04T14:02:08.016Z,97719.84
2022-12-04T14:04:34.813Z,97717.16
2022-12-04T14:07:01.109Z,97716.91
2022-12-04T14:09:27.466Z,97718.22
2022-12-04T14:11:54.429Z,97719.88
2022-12-04T14:14:21.367Z,97722.53
2022-12-04T14:16:47.738Z,97719.06
2022-12-04T14:19:14.113Z,97713.44
2022-12-04T14:21:40.401Z,97709.72
2022-12-04T14:24:06.654Z,97711.31
2022-12-04T14:27:03.188Z,97709.72
2022-12-04T14:29:19.317Z,97710.50
2022-12-04T14:31:45.609Z,97707.03
2022-12-04T14:34:12.453Z,97705.97
2022-12-04T14:36:38.713Z,97707.56
2022-12-04T14:39:05.309Z,97718.25
2022-12-04T14:41:31.590Z,97716.94
2022-12-04T14:43:58.338Z,97716.41
2022-12-04T14:46:24.686Z,97714.53
2022-12-04T14:48:51.394Z,97728.47
2022-12-04T14:51:19.224Z,97721.22
2022-12-04T14:53:45.486Z,97733.56
2022-12-04T14:56:11.831Z,97732.19
2022-12-04T14:58:38.665Z,97728.19
2022-12-04T15:01:04.970Z,97725.47
2022-12-04T15:03:31.492Z,97720.88
2022-12-04T15:05:57.856Z,97717.66
2022-12-04T15:08:24.204Z,97709.63
2022-12-04T15:10:51.295Z,97710.44
2022-12-04T15:13:21.555Z,97714.47
2022-12-04T15:15:48.111Z,97706.97
2022-12-04T15:18:15.273Z,97714.25
2022-12-04T15:20:42.361Z,97709.72
2022-12-04T15:23:09.199Z,97720.94
2022-12-04T15:25:35.488Z,97717.22
2022-12-04T15:28:01.776Z,97723.91
2022-12-04T15:30:28.063Z,97714.56
2022-12-04T15:32:54.325Z,97723.16
2022-12-04T15:35:20.643Z,97719.41
2022-12-04T15:37:46.915Z,97721.81
2022-12-04T15:40:13.438Z,97726.91
2022-12-04T15:42:39.753Z,97715.97
2022-12-04T15:45:06.545Z,97717.56
2022-12-04T15:47:33.076Z,97718.94
2022-12-04T15:49:59.373Z,97717.84
2022-12-04T15:52:25.846Z,97720.03
2022-12-04T15:54:52.152Z,97725.38
2022-12-04T15:57:18.556Z,97719.25
2022-12-04T15:59:45.359Z,97718.72
2022-12-04T16:02:11.773Z,97729.16
2022-12-04T16:04:44.007Z,97723.25
2022-12-04T16:07:11.699Z,97728.34
2022-12-04T16:09:38.026Z,97723.53
2022-12-04T16:12:04.404Z,97732.94
2022-12-04T16:14:30.734Z,97732.94
2022-12-04T16:17:01.215Z,97744.41
2022-12-04T16:19:31.206Z,97748.47
2022-12-04T16:21:57.484Z,97749.00
2022-12-04T16:24:23.997Z,97753.28
2022-12-04T16:26:50.316Z,97745.25
2022-12-04T16:29:16.821Z,97750.09
2022-12-04T16:31:43.388Z,97736.19
2022-12-04T16:34:09.736Z,97748.50
2022-12-04T16:36:36.052Z,97751.72
2022-12-04T16:39:02.372Z,97751.19
2022-12-04T16:41:28.948Z,97751.75
2022-12-04T16:43:55.190Z,97745.88
2022-12-04T16:46:22.382Z,97741.06
2022-12-04T16:48:48.758Z,97757.69
2022-12-04T16:51:15.323Z,97751.28
2022-12-04T16:53:41.584Z,97752.59
2022-12-04T16:56:08.388Z,97751.56
2022-12-04T16:58:34.686Z,97751.28
2022-12-04T17:01:01.416Z,97748.91
2022-12-04T17:03:28.760Z,97745.97
2022-12-04T17:05:55.010Z,97751.31
2022-12-04T17:08:21.531Z,97747.56
2022-12-04T17:10:47.826Z,97747.03
2022-12-04T17:13:14.256Z,97738.75
2022-12-04T17:15:40.711Z,97737.41
2022-12-04T17:18:11.990Z,97733.91
2022-12-04T17:20:40.405Z,97724.56
2022-12-04T17:23:06.809Z,97720.03
2022-12-04T17:25:33.097Z,97726.16
2022-12-04T17:27:59.353Z,97728.31
2022-12-04T17:30:29.051Z,97728.03
2022-12-04T17:32:58.475Z,97725.09
2022-12-04T17:35:24.780Z,97736.56
2022-12-04T17:37:51.075Z,97734.41
2022-12-04T17:40:17.323Z,97722.91
2022-12-04T17:42:43.561Z,97729.06
2022-12-04T17:45:09.868Z,97730.41
2022-12-04T17:47:36.912Z,97726.66
2022-12-04T17:52:54.490Z,97718.91
2022-12-04T17:55:20.926Z,97717.84
2022-12-04T17:57:47.634Z,97700.72
2022-12-04T18:00:14.138Z,97714.41
2022-12-04T18:02:40.483Z,97712.50
2022-12-04T18:05:08.070Z,97710.63
2022-12-04T18:07:34.398Z,97714.94
2022-12-04T18:10:01.305Z,97713.84
2022-12-04T18:12:27.637Z,97710.09
2022-12-04T18:14:53.998Z,97722.44
2022-12-04T18:17:20.510Z,97715.72
2022-12-04T18:19:47.876Z,97715.50
2022-12-04T18:22:15.451Z,97711.75
2022-12-04T18:24:43.523Z,97724.59
2022-12-04T18:27:09.807Z,97722.47
2022-12-04T18:29:36.340Z,97715.78
2022-12-04T18:32:02.731Z,97718.19
2022-12-04T18:34:29.086Z,97723.28
2022-12-04T18:36:55.785Z,97727.28
2022-12-04T18:39:22.150Z,97725.16
2022-12-04T18:41:48.777Z,97720.34
2022-12-04T18:44:15.809Z,97712.06
2022-12-04T18:46:42.103Z,97723.06
2022-12-04T18:49:08.380Z,97714.53
2022-12-04T18:51:35.378Z,97718.25
2022-12-04T18:54:01.782Z,97719.88
2022-12-04T18:56:28.779Z,97716.66
2022-12-04T18:58:55.021Z,97718.81
2022-12-04T19:01:21.422Z,97724.72
2022-12-04T19:03:47.757Z,97726.06
2022-12-04T19:06:14.191Z,97719.09
2022-12-04T19:08:43.260Z,97722.03
2022-12-04T19:11:11.376Z,97714.53
2022-12-04T19:13:37.709Z,97708.34
2022-12-04T19:16:04.058Z,97711.84
2022-12-04T19:18:30.452Z,97709.41
2022-12-04T19:21:01.507Z,97709.91
2022-12-04T19:23:27.948Z,97718.69
2022-12-04T19:25:54.577Z,97711.72
2022-12-04T19:28:27.175Z,97716.50
2022-12-04T19:30:54.211Z,97716.44
2022-12-04T19:33:22.411Z,97715.34
2022-12-04T19:35:51.755Z,97719.84
2022-12-04T19:38:18.951Z,97721.38
2022-12-04T19:40:45.611Z,97721.06
2022-12-04T19:43:13.264Z,97723.44
2022-12-04T19:45:40.012Z,97725.28
2022-12-04T19:48:07.386Z,97728.22
2022-12-04T19:50:34.508Z,97723.69
2022-12-04T19:53:03.867Z,97726.91
2022-12-04T19:55:31.973Z,97707.38
2022-12-04T19:58:00.117Z,97729.72
2022-12-04T20:00:26.961Z,97723.28
2022-12-04T20:03:01.781Z,97728.66
2022-12-04T20:05:28.752Z,97726.03
2022-12-04T20:10:23.720Z,97733.59
2022-12-04T20:12:50.473Z,97732.00
2022-12-04T20:15:17.333Z,97726.94
2022-12-04T20:17:44.728Z,97725.09
2022-12-04T20:20:13.929Z,97719.75
2022-12-04T20:22:41.911Z,97714.66
2022-12-04T20:25:08.623Z,97714.94
2022-12-04T20:27:35.305Z,97709.59
2022-12-04T20:30:08.354Z,97707.19
2022-12-04T20:32:36.348Z,97706.66
2022-12-04T20:35:03.483Z,97704.00
2022-12-04T20:37:30.576Z,97705.06
2022-12-04T20:39:58.834Z,97692.44
2022-12-04T20:42:33.327Z,97700.47
2022-12-04T20:45:00.513Z,97699.94
2022-12-04T20:47:28.876Z,97702.59
2022-12-04T20:49:56.976Z,97703.63
2022-12-04T20:52:26.584Z,97701.47
2022-12-04T20:54:54.151Z,97700.09
2022-12-04T20:57:21.056Z,97699.00
2022-12-04T20:59:48.153Z,97694.94
2022-12-04T21:02:15.520Z,97698.91
2022-12-04T21:04:42.195Z,97697.75
2022-12-04T21:07:09.090Z,97689.69
2022-12-04T21:09:36.039Z,97680.03
2022-12-04T21:12:03.009Z,97674.41
2022-12-04T21:14:30.273Z,97682.41
2022-12-04T21:16:57.227Z,97676.47
2022-12-04T21:19:25.086Z,97675.06
2022-12-04T21:21:52.198Z,97684.38
2022-12-04T21:24:21.951Z,97684.03
2022-12-04T21:26:48.447Z,97683.75
2022-12-04T21:29:15.165Z,97676.50
2022-12-04T21:31:43.402Z,97678.88
2022-12-04T21:34:12.790Z,97681.56
2022-12-04T21:36:40.289Z,97690.13
2022-12-04T21:39:07.422Z,97682.63
2022-12-04T21:41:37.866Z,97688.28
2022-12-04T21:44:06.681Z,97691.03
2022-12-04T21:49:27.761Z,97687.59
2022-12-04T21:51:57.653Z,97689.50
2022-12-04T21:54:24.638Z,97693.25
2022-12-04T21:56:52.330Z,97693.56
2022-12-04T21:59:25.470Z,97687.44
2022-12-04T22:01:52.928Z,97688.53
2022-12-04T22:04:23.028Z,97693.63
2022-12-04T22:06:50.504Z,97695.78
2022-12-04T22:09:19.662Z,97690.47
2022-12-04T22:11:46.380Z,97688.34
2022-12-04T22:14:12.955Z,97691.53
2022-12-04T22:16:42.800Z,97694.50
2022-12-04T22:19:10.161Z,97696.94
2022-12-04T22:21:38.311Z,97691.59
2022-12-04T22:24:05.508Z,97692.66
2022-12-04T22:26:39.504Z,97697.53
2022-12-04T22:29:34.100Z,97691.91
2022-12-04T22:31:55.480Z,97696.44
2022-12-04T22:34:22.314Z,97689.50
2022-12-04T22:37:03.062Z,97686.53
2022-12-04T22:39:35.203Z,97688.94
2022-12-04T22:42:14.774Z,97687.78
2022-12-04T22:44:42.657Z,97687.44
2022-12-04T22:47:13.854Z,97686.03
2022-12-04T22:49:45.839Z,97679.25
2022-12-04T22:52:12.753Z,97685.84
2022-12-04T22:54:44.937Z,97684.16
2022-12-04T22:57:19.180Z,97685.66
2022-12-04T22:59:51.428Z,97683.94
2022-12-04T23:05:13.461Z,97685.56
2022-12-04T23:07:41.474Z,97674.47
2022-12-04T23:10:18.105Z,97676.47
2022-12-04T23:12:50.364Z,97676.88
2022-12-04T23:15:20.500Z,97673.50
2022-12-04T23:17:58.353Z,97671.75
2022-12-04T23:20:42.697Z,97684.41
2022-12-04T23:23:10.500Z,97689.38
2022-12-04T23:25:55.182Z,97683.09
2022-12-04T23:28:26.053Z,97690.13
2022-12-04T23:30:53.260Z,97688.38
2022-12-04T23:33:23.624Z,97693.31
2022-12-04T23:35:53.302Z,97702.75
2022-12-04T23:44:15.306Z,97705.94
2022-12-04T23:46:43.168Z,97709.25
2022-12-04T23:49:20.407Z,97707.22
2022-12-04T23:51:49.437Z,97713.97
2022-12-04T23:54:19.947Z,97711.69
2022-12-04T23:56:48.950Z,97709.44
2022-12-04T23:59:16.526Z,97706.56
